createdAt,value
2019-05-02T00:00:58.431Z,101116.82
2019-05-02T00:03:28.751Z,101110.25
2019-05-02T00:05:57.770Z,101107.38
2019-05-02T00:08:29.344Z,101102.91
2019-05-02T00:10:58.400Z,101097.77
2019-05-02T00:13:27.405Z,101092.65
2019-05-02T00:15:56.339Z,101098.44
2019-05-02T00:18:26.604Z,101099.79
2019-05-02T00:20:57.190Z,101100.14
2019-05-02T00:23:28.033Z,101094.60
2019-05-02T00:25:56.610Z,101091.08
2019-05-02T00:28:25.426Z,101087.34
2019-05-02T00:30:54.572Z,101091.13
2019-05-02T00:33:23.385Z,101086.26
2019-05-02T00:35:52.120Z,101086.39
2019-05-02T00:38:20.891Z,101084.91
2019-05-02T00:40:49.618Z,101081.39
2019-05-02T00:43:18.407Z,101080.86
2019-05-02T00:45:47.261Z,101080.03
2019-05-02T00:48:19.272Z,101072.02
2019-05-02T00:50:50.929Z,101072.08
2019-05-02T00:53:18.656Z,101074.77
2019-05-02T00:55:47.442Z,101070.52
2019-05-02T00:58:16.193Z,101076.08
2019-05-02T01:00:53.142Z,101067.77
2019-05-02T01:03:23.019Z,101062.38
2019-05-02T01:05:52.009Z,101066.08
2019-05-02T01:08:20.762Z,101064.16
2019-05-02T01:10:52.172Z,101056.06
2019-05-02T01:13:20.407Z,101054.77
2019-05-02T01:15:49.296Z,101049.19
2019-05-02T01:18:19.625Z,101050.23
2019-05-02T01:20:48.369Z,101048.37
2019-05-02T01:23:17.147Z,101044.89
2019-05-02T01:25:47.204Z,101043.32
2019-05-02T01:28:23.988Z,101039.75
2019-05-02T01:31:06.329Z,101037.36
2019-05-02T01:33:41.630Z,101036.53
2019-05-02T01:36:12.202Z,101036.27
2019-05-02T01:38:45.558Z,101030.31
2019-05-02T01:41:14.333Z,101030.88
2019-05-02T01:43:43.083Z,101030.01
2019-05-02T01:46:11.866Z,101024.61
2019-05-02T01:48:45.740Z,101022.22
2019-05-02T01:51:12.109Z,101017.30
2019-05-02T01:53:40.958Z,101017.65
2019-05-02T01:56:09.734Z,101019.70
2019-05-02T01:58:38.483Z,101023.00
2019-05-02T02:01:07.361Z,101017.53
2019-05-02T02:03:40.487Z,101017.00
2019-05-02T02:06:08.066Z,101015.95
2019-05-02T02:08:37.107Z,101010.30
2019-05-02T02:11:05.881Z,101006.73
2019-05-02T02:13:36.446Z,101003.47
2019-05-02T02:16:05.931Z,100999.95
2019-05-02T02:18:36.373Z,101001.90
2019-05-02T02:21:20.014Z,100994.28
2019-05-02T02:23:53.596Z,100994.28
2019-05-02T02:26:24.027Z,100989.12
2019-05-02T02:28:52.776Z,100997.51
2019-05-02T02:31:22.345Z,100989.16
2019-05-02T02:33:51.126Z,100992.38
2019-05-02T02:36:29.529Z,100986.47
2019-05-02T02:38:50.475Z,100983.02
2019-05-02T02:41:19.237Z,100979.72
2019-05-02T02:43:54.633Z,100975.89
2019-05-02T02:46:21.677Z,100971.06
2019-05-02T02:48:50.430Z,100972.98
2019-05-02T02:51:23.812Z,100969.67
2019-05-02T02:53:49.677Z,100969.41
2019-05-02T02:56:18.465Z,100965.66
2019-05-02T02:58:47.976Z,100973.98
2019-05-02T03:01:27.290Z,100968.11
2019-05-02T03:03:47.840Z,100979.11
2019-05-02T03:06:16.587Z,100971.06
2019-05-02T03:08:48.846Z,100968.36
2019-05-02T03:11:23.238Z,100962.97
2019-05-02T03:13:53.911Z,100959.75
2019-05-02T03:16:24.513Z,100956.45
2019-05-02T03:18:53.248Z,100957.28
2019-05-02T03:21:22.623Z,100953.97
2019-05-02T03:24:01.421Z,100956.02
2019-05-02T03:26:22.150Z,100952.84
2019-05-02T03:28:57.232Z,100949.05
2019-05-02T03:31:25.277Z,100947.89
2019-05-02T03:33:56.286Z,100948.71
2019-05-02T03:36:35.483Z,100945.67
2019-05-02T03:38:53.510Z,100940.80
2019-05-02T03:41:23.641Z,100940.80
2019-05-02T03:44:10.001Z,100938.93
2019-05-02T03:46:23.237Z,100940.28
2019-05-02T03:48:51.992Z,100937.88
2019-05-02T03:51:24.707Z,100931.14
2019-05-02T03:53:51.397Z,100934.11
2019-05-02T03:56:20.180Z,100927.63
2019-05-02T03:58:56.007Z,100931.66
2019-05-02T04:01:20.186Z,100922.75
2019-05-02T04:03:48.936Z,100920.28
2019-05-02T04:06:20.961Z,100915.14
2019-05-02T04:08:59.142Z,100918.94
2019-05-02T04:11:22.894Z,100917.59
2019-05-02T04:13:52.936Z,100915.97
2019-05-02T04:16:22.794Z,100911.48
2019-05-02T04:18:55.707Z,100911.48
2019-05-02T04:21:25.915Z,100911.71
2019-05-02T04:23:53.239Z,100913.61
2019-05-02T04:26:21.977Z,100917.70
2019-05-02T04:28:51.782Z,100913.36
2019-05-02T04:31:24.904Z,100919.09
2019-05-02T04:33:59.614Z,100917.78
2019-05-02T04:36:28.463Z,100915.39
2019-05-02T04:38:59.553Z,100917.34
2019-05-02T04:41:29.268Z,100915.52
2019-05-02T04:44:01.384Z,100913.42
2019-05-02T04:46:31.184Z,100918.89
2019-05-02T04:48:59.320Z,100909.80
2019-05-02T04:51:31.797Z,100914.84
2019-05-02T04:53:58.969Z,100903.53
2019-05-02T04:56:28.513Z,100905.45
2019-05-02T04:58:59.276Z,100896.60
2019-05-02T05:01:33.144Z,100898.44
2019-05-02T05:04:03.164Z,100891.73
2019-05-02T05:06:29.001Z,100897.70
2019-05-02T05:09:04.047Z,100887.95
2019-05-02T05:11:28.519Z,100892.83
2019-05-02T05:14:07.139Z,100900.95
2019-05-02T05:16:37.283Z,100897.66
2019-05-02T05:19:07.616Z,100902.30
2019-05-02T05:21:37.402Z,100897.87
2019-05-02T05:24:07.835Z,100902.86
2019-05-02T05:26:42.745Z,100902.94
2019-05-02T05:29:08.725Z,100896.05
2019-05-02T05:31:38.219Z,100900.66
2019-05-02T05:34:09.798Z,100903.46
2019-05-02T05:36:39.991Z,100901.63
2019-05-02T05:39:12.002Z,100902.27
2019-05-02T05:41:42.654Z,100896.70
2019-05-02T05:44:11.426Z,100894.69
2019-05-02T05:46:42.517Z,100897.03
2019-05-02T05:49:18.338Z,100897.03
2019-05-02T05:51:41.329Z,100891.01
2019-05-02T05:54:10.136Z,100880.78
2019-05-02T05:56:42.900Z,100874.13
2019-05-02T05:59:10.376Z,100876.37
2019-05-02T06:01:39.401Z,100876.03
2019-05-02T06:04:13.821Z,100875.84
2019-05-02T06:06:43.562Z,100873.47
2019-05-02T06:09:13.973Z,100872.23
2019-05-02T06:11:43.071Z,100873.00
2019-05-02T06:14:11.849Z,100871.00
2019-05-02T06:16:40.706Z,100871.33
2019-05-02T06:19:12.986Z,100867.07
2019-05-02T06:21:44.824Z,100878.43
2019-05-02T06:24:10.978Z,100864.51
2019-05-02T06:26:39.893Z,100868.92
2019-05-02T06:29:13.081Z,100869.36
2019-05-02T06:31:43.092Z,100868.31
2019-05-02T06:34:09.611Z,100866.37
2019-05-02T06:36:38.391Z,100870.48
2019-05-02T06:39:07.849Z,100860.31
2019-05-02T06:41:36.590Z,100847.83
2019-05-02T06:44:05.499Z,100849.59
2019-05-02T06:46:34.302Z,100828.73
2019-05-02T06:49:03.075Z,100846.52
2019-05-02T06:51:31.889Z,100851.86
2019-05-02T06:54:00.643Z,100841.66
2019-05-02T06:56:29.441Z,100840.95
2019-05-02T06:58:58.409Z,100836.61
2019-05-02T07:01:27.290Z,100835.73
2019-05-02T07:03:56.170Z,100829.20
2019-05-02T07:06:25.422Z,100831.69
2019-05-02T07:08:54.470Z,100834.80
2019-05-02T07:11:23.314Z,100839.28
2019-05-02T07:13:52.113Z,100840.37
2019-05-02T07:16:37.167Z,100841.16
2019-05-02T07:19:00.271Z,100846.30
2019-05-02T07:21:29.159Z,100847.28
2019-05-02T07:23:57.924Z,100837.58
2019-05-02T07:26:26.680Z,100837.64
2019-05-02T07:28:55.470Z,100839.16
2019-05-02T07:31:24.214Z,100838.81
2019-05-02T07:33:53.051Z,100840.72
2019-05-02T07:36:21.798Z,100840.09
2019-05-02T07:38:50.546Z,100839.18
2019-05-02T07:41:19.358Z,100829.24
2019-05-02T07:43:52.115Z,100832.48
2019-05-02T07:46:21.000Z,100828.93
2019-05-02T07:48:54.445Z,100837.91
2019-05-02T07:51:22.814Z,100831.92
2019-05-02T07:53:51.530Z,100832.72
2019-05-02T07:56:20.317Z,100830.33
2019-05-02T07:58:49.074Z,100821.61
2019-05-02T08:01:17.874Z,100825.92
2019-05-02T08:03:46.627Z,100824.97
2019-05-02T08:06:15.386Z,100827.50
2019-05-02T08:08:44.154Z,100819.66
2019-05-02T08:11:13.065Z,100824.31
2019-05-02T08:13:41.865Z,100817.26
2019-05-02T08:16:10.654Z,100820.21
2019-05-02T08:18:39.461Z,100813.63
2019-05-02T08:21:08.298Z,100814.94
2019-05-02T08:23:37.078Z,100815.48
2019-05-02T08:26:05.972Z,100812.34
2019-05-02T08:28:39.088Z,100812.28
2019-05-02T08:31:07.971Z,100807.37
2019-05-02T08:33:36.718Z,100813.91
2019-05-02T08:36:05.513Z,100805.00
2019-05-02T08:38:34.344Z,100800.48
2019-05-02T08:41:03.096Z,100799.05
2019-05-02T08:43:31.844Z,100804.09
2019-05-02T08:46:00.721Z,100805.02
2019-05-02T08:48:29.463Z,100804.61
2019-05-02T08:50:58.424Z,100805.25
2019-05-02T08:53:27.167Z,100800.23
2019-05-02T08:55:55.926Z,100802.36
2019-05-02T08:58:24.769Z,100802.36
2019-05-02T09:00:53.576Z,100802.36
2019-05-02T09:03:22.326Z,100796.44
2019-05-02T09:05:51.069Z,100789.41
2019-05-02T09:08:19.840Z,100788.59
2019-05-02T09:10:48.606Z,100790.05
2019-05-02T09:13:23.498Z,100785.48
2019-05-02T09:15:51.314Z,100789.87
2019-05-02T09:18:18.643Z,100788.51
2019-05-02T09:20:52.577Z,100794.61
2019-05-02T09:23:18.112Z,100786.42
2019-05-02T09:25:46.867Z,100788.88
2019-05-02T09:28:17.177Z,100783.82
2019-05-02T09:30:46.850Z,100779.52
2019-05-02T09:33:15.757Z,100779.52
2019-05-02T09:35:44.600Z,100772.39
2019-05-02T09:38:16.225Z,100782.99
2019-05-02T09:40:47.154Z,100771.38
2019-05-02T09:43:14.462Z,100777.81
2019-05-02T09:45:44.036Z,100776.04
2019-05-02T09:48:17.170Z,100767.88
2019-05-02T09:50:43.647Z,100765.89
2019-05-02T09:53:26.033Z,100766.28
2019-05-02T09:56:10.153Z,100754.36
2019-05-02T09:58:49.070Z,100744.77
2019-05-02T10:01:26.959Z,100743.38
2019-05-02T10:03:55.862Z,100746.03
2019-05-02T10:06:24.806Z,100745.03
2019-05-02T10:08:53.671Z,100737.97
2019-05-02T10:11:26.036Z,100736.44
2019-05-02T10:13:55.422Z,100733.17
2019-05-02T10:16:27.158Z,100733.16
2019-05-02T10:18:53.921Z,100729.17
2019-05-02T10:21:22.983Z,100728.55
2019-05-02T10:23:59.081Z,100723.62
2019-05-02T10:26:24.465Z,100718.31
2019-05-02T10:28:53.435Z,100713.05
2019-05-02T10:31:27.644Z,100713.48
2019-05-02T10:33:55.090Z,100708.58
2019-05-02T10:36:24.121Z,100706.56
2019-05-02T10:38:54.953Z,100698.63
2019-05-02T10:41:24.681Z,100703.69
2019-05-02T10:43:56.689Z,100692.94
2019-05-02T10:46:41.737Z,100696.75
2019-05-02T10:49:18.396Z,100694.13
2019-05-02T10:51:49.569Z,100694.58
2019-05-02T10:54:20.512Z,100698.17
2019-05-02T10:56:48.142Z,100686.11
2019-05-02T10:59:17.087Z,100697.38
2019-05-02T11:01:49.860Z,100695.78
2019-05-02T11:04:18.661Z,100693.40
2019-05-02T11:06:47.511Z,100701.69
2019-05-02T11:09:16.691Z,100701.69
2019-05-02T11:11:47.005Z,100701.61
2019-05-02T11:14:24.571Z,100700.97
2019-05-02T11:16:58.107Z,100702.59
2019-05-02T11:19:28.524Z,100699.46
2019-05-02T11:21:59.104Z,100699.48
2019-05-02T11:24:28.498Z,100705.09
2019-05-02T11:26:57.867Z,100703.28
2019-05-02T11:29:27.140Z,100704.20
2019-05-02T11:32:02.783Z,100708.55
2019-05-02T11:34:32.671Z,100714.30
2019-05-02T11:37:01.820Z,100714.11
2019-05-02T11:39:37.741Z,100717.97
2019-05-02T11:42:02.123Z,100723.73
2019-05-02T11:44:32.648Z,100718.94
2019-05-02T11:47:02.090Z,100717.05
2019-05-02T11:49:31.990Z,100711.10
2019-05-02T11:52:04.348Z,100718.13
2019-05-02T11:54:31.964Z,100723.29
2019-05-02T11:57:02.276Z,100717.55
2019-05-02T11:59:31.984Z,100715.05
2019-05-02T12:02:09.326Z,100711.45
2019-05-02T12:04:38.787Z,100708.41
2019-05-02T12:07:07.583Z,100710.09
2019-05-02T12:09:36.337Z,100707.34
2019-05-02T12:12:05.503Z,100713.31
2019-05-02T12:14:36.393Z,100691.66
2019-05-02T12:17:05.233Z,100705.73
2019-05-02T12:19:34.017Z,100703.02
2019-05-02T12:22:07.205Z,100706.34
2019-05-02T12:24:36.485Z,100704.13
2019-05-02T12:27:05.171Z,100698.72
2019-05-02T12:29:33.973Z,100676.79
2019-05-02T12:32:02.769Z,100712.84
2019-05-02T12:34:32.530Z,100707.13
2019-05-02T12:37:01.807Z,100709.34
2019-05-02T12:39:31.660Z,100704.73
2019-05-02T12:42:02.643Z,100710.53
2019-05-02T12:44:31.846Z,100701.84
2019-05-02T12:47:02.486Z,100704.60
2019-05-02T12:49:32.475Z,100696.45
2019-05-02T12:52:01.820Z,100700.26
2019-05-02T12:54:32.421Z,100698.36
2019-05-02T12:57:02.055Z,100703.78
2019-05-02T12:59:32.227Z,100701.60
2019-05-02T13:02:02.663Z,100696.45
2019-05-02T13:04:32.257Z,100698.37
2019-05-02T13:07:02.155Z,100702.16
2019-05-02T13:09:32.570Z,100701.06
2019-05-02T13:12:03.192Z,100701.06
2019-05-02T13:14:32.131Z,100696.19
2019-05-02T13:17:05.233Z,100695.37
2019-05-02T13:19:40.141Z,100701.32
2019-05-02T13:22:06.719Z,100689.40
2019-05-02T13:24:37.071Z,100688.58
2019-05-02T13:27:08.737Z,100679.08
2019-05-02T13:29:37.762Z,100678.56
2019-05-02T13:32:08.785Z,100672.58
2019-05-02T13:34:48.282Z,100669.84
2019-05-02T13:37:15.770Z,100660.82
2019-05-02T13:40:02.522Z,100665.39
2019-05-02T13:42:33.583Z,100656.64
2019-05-02T13:45:03.733Z,100656.02
2019-05-02T13:47:32.969Z,100648.95
2019-05-02T13:50:03.887Z,100655.18
2019-05-02T13:52:34.397Z,100652.45
2019-05-02T13:55:04.783Z,100657.96
2019-05-02T13:57:34.921Z,100651.47
2019-05-02T14:00:05.725Z,100644.39
2019-05-02T14:02:37.459Z,100657.73
2019-05-02T14:05:08.609Z,100646.09
2019-05-02T14:07:37.599Z,100640.54
2019-05-02T14:10:25.237Z,100648.55
2019-05-02T14:12:55.699Z,100635.62
2019-05-02T14:15:26.022Z,100639.34
2019-05-02T14:17:54.769Z,100636.49
2019-05-02T14:20:24.343Z,100642.68
2019-05-02T14:22:53.184Z,100640.30
2019-05-02T14:25:22.633Z,100642.19
2019-05-02T14:27:55.336Z,100646.89
2019-05-02T14:30:35.966Z,100639.77
2019-05-02T14:32:54.375Z,100637.78
2019-05-02T14:35:28.401Z,100622.75
2019-05-02T14:38:10.138Z,100627.50
2019-05-02T14:40:58.411Z,100620.67
2019-05-02T14:43:48.007Z,100620.37
2019-05-02T14:46:17.827Z,100614.07
2019-05-02T14:48:46.473Z,100613.56
2019-05-02T14:51:16.783Z,100603.93
2019-05-02T14:53:45.792Z,100578.22
2019-05-02T14:56:16.105Z,100602.39
2019-05-02T14:58:44.908Z,100596.81
2019-05-02T15:01:17.162Z,100597.81
2019-05-02T15:03:44.171Z,100587.98
2019-05-02T15:06:12.996Z,100590.50
2019-05-02T15:08:44.725Z,100586.94
2019-05-02T15:11:12.595Z,100588.37
2019-05-02T15:13:43.595Z,100584.53
2019-05-02T15:16:17.810Z,100587.44
2019-05-02T15:18:42.418Z,100583.91
2019-05-02T15:21:16.330Z,100581.70
2019-05-02T15:23:43.283Z,100581.73
2019-05-02T15:26:14.048Z,100585.27
2019-05-02T15:28:42.549Z,100586.42
2019-05-02T15:31:28.473Z,100582.21
2019-05-02T15:34:01.537Z,100582.99
2019-05-02T15:36:28.005Z,100576.44
2019-05-02T15:38:56.748Z,100576.68
2019-05-02T15:41:25.531Z,100568.90
2019-05-02T15:43:54.334Z,100569.91
2019-05-02T15:46:28.146Z,100574.26
2019-05-02T15:48:57.262Z,100565.39
2019-05-02T15:51:24.820Z,100576.27
2019-05-02T15:54:06.123Z,100573.75
2019-05-02T15:56:28.350Z,100566.00
2019-05-02T15:59:02.421Z,100567.36
2019-05-02T16:01:36.587Z,100574.47
2019-05-02T16:04:07.034Z,100573.34
2019-05-02T16:06:35.795Z,100573.77
2019-05-02T16:09:07.071Z,100575.39
2019-05-02T16:11:38.797Z,100573.85
2019-05-02T16:14:12.798Z,100574.64
2019-05-02T16:16:45.114Z,100579.55
2019-05-02T16:19:14.916Z,100580.39
2019-05-02T16:21:52.054Z,100579.17
2019-05-02T16:24:22.903Z,100576.75
2019-05-02T16:26:56.629Z,100574.67
2019-05-02T16:29:34.898Z,100577.39
2019-05-02T16:32:08.466Z,100581.92
2019-05-02T16:34:54.753Z,100591.25
2019-05-02T16:37:23.776Z,100588.23
2019-05-02T16:39:52.681Z,100590.44
2019-05-02T16:42:23.394Z,100593.06
2019-05-02T16:44:54.777Z,100595.34
2019-05-02T16:47:24.647Z,100594.55
2019-05-02T16:50:04.515Z,100596.16
2019-05-02T16:52:38.257Z,100601.96
2019-05-02T16:55:07.501Z,100594.58
2019-05-02T16:57:37.567Z,100596.87
2019-05-02T17:00:12.816Z,100599.13
2019-05-02T17:02:46.448Z,100597.72
2019-05-02T17:05:16.586Z,100588.20
2019-05-02T17:07:53.044Z,100593.84
2019-05-02T17:10:32.198Z,100586.53
2019-05-02T17:13:06.150Z,100584.42
2019-05-02T17:15:38.455Z,100587.95
2019-05-02T17:18:18.076Z,100586.58
2019-05-02T17:20:38.347Z,100597.44
2019-05-02T17:23:07.977Z,100599.98
2019-05-02T17:25:36.812Z,100595.41
2019-05-02T17:28:10.021Z,100598.20
2019-05-02T17:30:39.432Z,100598.02
2019-05-02T17:33:14.346Z,100604.02
2019-05-02T17:35:48.797Z,100604.59
2019-05-02T17:38:12.190Z,100604.32
2019-05-02T17:40:42.184Z,100609.77
2019-05-02T17:43:12.079Z,100613.58
2019-05-02T17:45:42.330Z,100612.22
2019-05-02T17:48:16.203Z,100619.89
2019-05-02T17:50:49.342Z,100618.02
2019-05-02T17:53:19.734Z,100616.39
2019-05-02T17:55:52.629Z,100617.48
2019-05-02T17:58:22.085Z,100629.97
2019-05-02T18:00:57.210Z,100635.12
2019-05-02T18:03:35.343Z,100634.88
2019-05-02T18:06:13.256Z,100628.91
2019-05-02T18:08:46.308Z,100634.87
2019-05-02T18:11:17.242Z,100637.32
2019-05-02T18:13:51.815Z,100638.94
2019-05-02T18:16:24.136Z,100648.14
2019-05-02T18:18:53.745Z,100649.23
2019-05-02T18:21:28.928Z,100641.36
2019-05-02T18:24:06.074Z,100651.92
2019-05-02T18:26:34.148Z,100647.00
2019-05-02T18:29:15.264Z,100650.81
2019-05-02T18:31:47.333Z,100648.61
2019-05-02T18:34:22.756Z,100644.54
2019-05-02T18:36:47.494Z,100640.95
2019-05-02T18:39:34.903Z,100646.30
2019-05-02T18:41:55.095Z,100644.64
2019-05-02T18:44:24.864Z,100655.17
2019-05-02T18:47:02.307Z,100660.23
2019-05-02T18:49:32.146Z,100666.69
2019-05-02T18:52:01.929Z,100660.14
2019-05-02T18:54:33.798Z,100658.78
2019-05-02T18:57:09.356Z,100666.35
2019-05-02T18:59:38.640Z,100661.41
2019-05-02T19:02:07.796Z,100665.16
2019-05-02T19:04:39.726Z,100661.67
2019-05-02T19:07:14.286Z,100668.45
2019-05-02T19:09:48.455Z,100665.78
2019-05-02T19:12:21.517Z,100669.59
2019-05-02T19:14:42.099Z,100672.01
2019-05-02T19:17:12.246Z,100668.54
2019-05-02T19:19:41.919Z,100680.45
2019-05-02T19:22:13.217Z,100683.43
2019-05-02T19:24:45.185Z,100690.73
2019-05-02T19:27:15.672Z,100688.31
2019-05-02T19:29:48.107Z,100703.11
2019-05-02T19:32:17.042Z,100713.23
2019-05-02T19:34:46.858Z,100715.27
2019-05-02T19:37:17.731Z,100715.13
2019-05-02T19:39:48.703Z,100713.95
2019-05-02T19:42:22.660Z,100722.55
2019-05-02T19:44:50.363Z,100736.77
2019-05-02T19:47:19.590Z,100737.18
2019-05-02T19:49:52.725Z,100752.09
2019-05-02T19:52:34.386Z,100752.55
2019-05-02T19:55:14.019Z,100758.11
2019-05-02T19:57:38.129Z,100757.23
2019-05-02T20:00:07.905Z,100766.69
2019-05-02T20:02:37.613Z,100760.39
2019-05-02T20:05:09.214Z,100765.20
2019-05-02T20:07:38.608Z,100771.76
2019-05-02T20:10:08.630Z,100777.13
2019-05-02T20:12:42.432Z,100774.16
2019-05-02T20:15:11.997Z,100777.59
2019-05-02T20:17:41.669Z,100778.38
2019-05-02T20:20:21.664Z,100782.30
2019-05-02T20:22:52.354Z,100781.27
2019-05-02T20:25:22.780Z,100780.68
2019-05-02T20:27:52.581Z,100782.26
2019-05-02T20:30:22.510Z,100781.14
2019-05-02T20:32:51.785Z,100777.55
2019-05-02T20:35:22.586Z,100784.22
2019-05-02T20:37:52.572Z,100788.04
2019-05-02T20:40:31.658Z,100781.91
2019-05-02T20:43:00.099Z,100783.86
2019-05-02T20:45:29.005Z,100779.73
2019-05-02T20:47:57.963Z,100785.13
2019-05-02T20:50:26.736Z,100783.59
2019-05-02T20:52:56.580Z,100785.16
2019-05-02T20:55:26.583Z,100782.58
2019-05-02T20:57:56.453Z,100783.63
2019-05-02T21:00:32.261Z,100783.59
2019-05-02T21:03:02.683Z,100791.20
2019-05-02T21:05:36.731Z,100797.86
2019-05-02T21:08:08.298Z,100799.17
2019-05-02T21:10:41.629Z,100800.41
2019-05-02T21:13:12.678Z,100796.66
2019-05-02T21:15:42.327Z,100800.10
2019-05-02T21:18:12.066Z,100799.02
2019-05-02T21:20:41.908Z,100799.17
2019-05-02T21:23:11.715Z,100803.09
2019-05-02T21:25:41.750Z,100800.49
2019-05-02T21:28:11.980Z,100809.54
2019-05-02T21:30:41.780Z,100807.16
2019-05-02T21:33:32.106Z,100814.16
2019-05-02T21:36:01.223Z,100815.73
2019-05-02T21:38:31.830Z,100815.30
2019-05-02T21:41:00.449Z,100812.42
2019-05-02T21:43:29.258Z,100815.25
2019-05-02T21:45:58.109Z,100814.16
2019-05-02T21:48:28.190Z,100816.06
2019-05-02T21:51:02.573Z,100818.28
2019-05-02T21:53:55.415Z,100819.33
2019-05-02T21:56:24.223Z,100822.63
2019-05-02T21:59:06.053Z,100819.89
2019-05-02T22:01:38.138Z,100818.66
2019-05-02T22:04:06.977Z,100825.87
2019-05-02T22:06:35.830Z,100835.98
2019-05-02T22:09:07.737Z,100834.59
2019-05-02T22:11:36.943Z,100834.53
2019-05-02T22:14:06.382Z,100837.17
2019-05-02T22:16:35.429Z,100839.09
2019-05-02T22:19:05.500Z,100842.55
2019-05-02T22:21:35.182Z,100814.58
2019-05-02T22:24:11.200Z,100840.48
2019-05-02T22:26:35.947Z,100816.75
2019-05-02T22:29:05.699Z,100846.68
2019-05-02T22:31:34.533Z,100661.20
2019-05-02T22:34:03.338Z,100839.01
2019-05-02T22:36:32.766Z,100834.72
2019-05-02T22:39:19.207Z,100836.98
2019-05-02T22:41:48.212Z,100841.70
2019-05-02T22:44:16.952Z,100843.87
2019-05-02T22:46:46.316Z,100844.66
2019-05-02T22:49:15.443Z,100848.52
2019-05-02T22:51:44.478Z,100854.61
2019-05-02T22:54:24.154Z,100848.73
2019-05-02T22:56:44.128Z,100854.17
2019-05-02T22:59:12.892Z,100856.05
2019-05-02T23:01:42.328Z,100856.52
2019-05-02T23:04:12.828Z,100858.69
2019-05-02T23:06:43.927Z,100859.22
2019-05-02T23:09:12.875Z,100855.00
2019-05-02T23:11:42.581Z,100859.86
2019-05-02T23:14:11.628Z,100862.26
2019-05-02T23:16:42.766Z,100864.95
2019-05-02T23:19:12.266Z,100863.86
2019-05-02T23:21:42.321Z,100866.08
2019-05-02T23:24:14.665Z,100865.78
2019-05-02T23:26:45.089Z,100867.99
2019-05-02T23:29:15.427Z,100877.77
2019-05-02T23:31:44.216Z,100875.90
2019-05-02T23:34:13.122Z,100875.34
2019-05-02T23:36:42.076Z,100872.60
2019-05-02T23:39:12.505Z,100869.91
2019-05-02T23:41:42.122Z,100876.12
2019-05-02T23:44:12.295Z,100872.13
2019-05-02T23:46:42.433Z,100877.42
2019-05-02T23:49:12.694Z,100872.91
2019-05-02T23:51:42.651Z,100867.86
2019-05-02T23:54:12.907Z,100876.08
2019-05-02T23:56:47.498Z,100876.25
2019-05-02T23:59:16.282Z,100872.25
